BHX weather

Birmingham International Airport
Birmingham, England, United Kingdom

Public forecast

Using degrees Celsius for public forecast. Weather courtesy of forecast.io.

Current aviation weather report (METAR) for Birmingham International Airport

Retrieved 2019/10/15 07:20 UTC (5 minutes ago):

EGBB 150720Z 22004KT 4600 BR BKN004 BKN023 10/10 Q1003

Aviation forecast (TAF) for Birmingham International Airport

Retrieved 2019/10/15 06:00 UTC (1 hour ago):

TAF EGBB 150459Z 1506/1606 24006KT 4000 BR BKN004 BECMG 1506/1509 9999 NSW BKN008 BECMG 1509/1512 FEW008 SCT025 BECMG 1600/1603 17012KT TEMPO 1603/1606 6000 RA BKN010 PROB30 TEMPO 1603/1606 BKN008